sensor_id;sensor_type;location;lat;lon;timestamp;P1;durP1;ratioP1;P2;durP2;ratioP2
54557;SDS011;40452;50.080;20.040;2023-04-15T04:50:29;2.30;;;1.30;;
54557;SDS011;40452;50.080;20.040;2023-04-15T04:52:55;3.55;;;1.17;;
54557;SDS011;40452;50.080;20.040;2023-04-15T04:55:20;8.05;;;1.25;;
54557;SDS011;40452;50.080;20.040;2023-04-15T04:57:46;16.45;;;1.40;;
54557;SDS011;40452;50.080;20.040;2023-04-15T05:00:11;5.82;;;1.20;;
54557;SDS011;40452;50.080;20.040;2023-04-15T05:02:38;6.82;;;1.38;;
54557;SDS011;40452;50.080;20.040;2023-04-15T05:05:03;2.67;;;1.05;;
54557;SDS011;40452;50.080;20.040;2023-04-15T05:07:29;4.35;;;1.33;;
54557;SDS011;40452;50.080;20.040;2023-04-15T05:09:55;5.32;;;1.13;;
54557;SDS011;40452;50.080;20.040;2023-04-15T05:12:20;5.60;;;1.20;;
54557;SDS011;40452;50.080;20.040;2023-04-15T05:14:46;3.15;;;1.35;;
54557;SDS011;40452;50.080;20.040;2023-04-15T05:17:11;5.45;;;1.35;;
54557;SDS011;40452;50.080;20.040;2023-04-15T05:19:38;3.58;;;1.40;;
54557;SDS011;40452;50.080;20.040;2023-04-15T05:22:03;3.42;;;1.13;;
54557;SDS011;40452;50.080;20.040;2023-04-15T05:24:29;4.70;;;1.00;;
54557;SDS011;40452;50.080;20.040;2023-04-15T05:26:54;2.80;;;1.30;;
54557;SDS011;40452;50.080;20.040;2023-04-15T05:29:21;2.10;;;1.17;;
54557;SDS011;40452;50.080;20.040;2023-04-15T05:31:46;4.82;;;1.13;;
54557;SDS011;40452;50.080;20.040;2023-04-15T05:34:12;3.72;;;1.13;;
54557;SDS011;40452;50.080;20.040;2023-04-15T05:36:39;2.58;;;1.10;;
54557;SDS011;40452;50.080;20.040;2023-04-15T05:39:05;4.05;;;1.25;;
54557;SDS011;40452;50.080;20.040;2023-04-15T05:41:31;3.90;;;1.33;;
54557;SDS011;40452;50.080;20.040;2023-04-15T05:43:56;2.90;;;1.20;;
54557;SDS011;40452;50.080;20.040;2023-04-15T05:46:22;2.53;;;1.20;;
54557;SDS011;40452;50.080;20.040;2023-04-15T05:48:47;5.32;;;1.25;;
54557;SDS011;40452;50.080;20.040;2023-04-15T05:51:13;2.95;;;1.20;;
54557;SDS011;40452;50.080;20.040;2023-04-15T05:53:39;4.43;;;1.20;;
54557;SDS011;40452;50.080;20.040;2023-04-15T05:56:05;1.65;;;1.05;;
54557;SDS011;40452;50.080;20.040;2023-04-15T05:58:31;2.28;;;0.95;;
54557;SDS011;40452;50.080;20.040;2023-04-15T06:00:57;1.70;;;1.00;;
54557;SDS011;40452;50.080;20.040;2023-04-15T06:03:22;2.25;;;0.95;;
54557;SDS011;40452;50.080;20.040;2023-04-15T06:05:48;3.15;;;1.10;;
54557;SDS011;40452;50.080;20.040;2023-04-15T06:08:13;3.20;;;1.30;;
54557;SDS011;40452;50.080;20.040;2023-04-15T06:10:39;2.25;;;1.10;;
54557;SDS011;40452;50.080;20.040;2023-04-15T06:13:05;3.53;;;1.00;;
54557;SDS011;40452;50.080;20.040;2023-04-15T06:15:31;3.55;;;1.30;;
54557;SDS011;40452;50.080;20.040;2023-04-15T06:17:57;1.85;;;0.98;;
54557;SDS011;40452;50.080;20.040;2023-04-15T06:20:23;2.35;;;1.00;;
54557;SDS011;40452;50.080;20.040;2023-04-15T06:22:49;2.85;;;1.20;;
54557;SDS011;40452;50.080;20.040;2023-04-15T06:25:15;3.85;;;1.08;;
54557;SDS011;40452;50.080;20.040;2023-04-15T06:27:40;2.78;;;1.00;;
54557;SDS011;40452;50.080;20.040;2023-04-15T06:30:06;4.15;;;1.13;;
54557;SDS011;40452;50.080;20.040;2023-04-15T06:32:32;2.25;;;0.90;;
54557;SDS011;40452;50.080;20.040;2023-04-15T06:34:58;1.70;;;1.08;;
54557;SDS011;40452;50.080;20.040;2023-04-15T06:37:23;2.88;;;1.13;;
54557;SDS011;40452;50.080;20.040;2023-04-15T06:39:49;2.85;;;1.23;;
54557;SDS011;40452;50.080;20.040;2023-04-15T06:42:14;4.03;;;1.20;;
54557;SDS011;40452;50.080;20.040;2023-04-15T06:44:40;4.10;;;1.30;;
54557;SDS011;40452;50.080;20.040;2023-04-15T06:47:06;9.77;;;0.90;;
54557;SDS011;40452;50.080;20.040;2023-04-15T06:49:33;1.90;;;1.10;;
54557;SDS011;40452;50.080;20.040;2023-04-15T06:51:58;3.83;;;1.13;;
54557;SDS011;40452;50.080;20.040;2023-04-15T06:54:24;1.75;;;0.80;;
54557;SDS011;40452;50.080;20.040;2023-04-15T06:56:50;2.00;;;0.90;;
54557;SDS011;40452;50.080;20.040;2023-04-15T06:59:16;2.78;;;0.90;;
54557;SDS011;40452;50.080;20.040;2023-04-15T07:01:42;2.55;;;1.13;;
54557;SDS011;40452;50.080;20.040;2023-04-15T07:04:07;1.95;;;0.90;;
54557;SDS011;40452;50.080;20.040;2023-04-15T07:06:33;1.73;;;0.90;;
54557;SDS011;40452;50.080;20.040;2023-04-15T07:08:59;3.58;;;1.10;;
54557;SDS011;40452;50.080;20.040;2023-04-15T07:11:27;3.17;;;1.30;;
54557;SDS011;40452;50.080;20.040;2023-04-15T07:13:52;2.85;;;1.10;;
54557;SDS011;40452;50.080;20.040;2023-04-15T07:16:18;2.47;;;1.13;;
54557;SDS011;40452;50.080;20.040;2023-04-15T07:18:43;1.85;;;0.90;;
54557;SDS011;40452;50.080;20.040;2023-04-15T07:21:09;1.90;;;0.93;;
54557;SDS011;40452;50.080;20.040;2023-04-15T07:23:35;2.67;;;1.00;;
54557;SDS011;40452;50.080;20.040;2023-04-15T07:26:02;1.65;;;0.93;;
54557;SDS011;40452;50.080;20.040;2023-04-15T07:28:29;2.55;;;1.00;;
54557;SDS011;40452;50.080;20.040;2023-04-15T07:30:55;3.53;;;0.90;;
54557;SDS011;40452;50.080;20.040;2023-04-15T07:33:21;1.95;;;0.93;;
54557;SDS011;40452;50.080;20.040;2023-04-15T07:35:47;13.00;;;1.35;;
54557;SDS011;40452;50.080;20.040;2023-04-15T07:38:13;4.65;;;1.00;;
54557;SDS011;40452;50.080;20.040;2023-04-15T07:40:38;2.92;;;0.90;;
54557;SDS011;40452;50.080;20.040;2023-04-15T07:43:04;1.33;;;0.90;;
54557;SDS011;40452;50.080;20.040;2023-04-15T07:45:30;5.18;;;1.05;;
54557;SDS011;40452;50.080;20.040;2023-04-15T07:47:56;1.67;;;0.70;;
54557;SDS011;40452;50.080;20.040;2023-04-15T07:50:22;3.60;;;1.00;;
54557;SDS011;40452;50.080;20.040;2023-04-15T07:52:51;2.97;;;0.90;;
54557;SDS011;40452;50.080;20.040;2023-04-15T07:55:39;3.08;;;0.85;;
54557;SDS011;40452;50.080;20.040;2023-04-15T07:58:05;5.00;;;0.88;;
54557;SDS011;40452;50.080;20.040;2023-04-15T08:00:38;1.45;;;0.77;;
54557;SDS011;40452;50.080;20.040;2023-04-15T08:03:31;1.75;;;0.70;;
54557;SDS011;40452;50.080;20.040;2023-04-15T08:05:57;3.10;;;0.90;;
54557;SDS011;40452;50.080;20.040;2023-04-15T08:08:23;3.72;;;0.88;;
54557;SDS011;40452;50.080;20.040;2023-04-15T08:10:49;15.82;;;3.22;;
54557;SDS011;40452;50.080;20.040;2023-04-15T08:13:15;3.58;;;2.03;;
54557;SDS011;40452;50.080;20.040;2023-04-15T08:15:41;4.18;;;1.80;;
54557;SDS011;40452;50.080;20.040;2023-04-15T08:18:07;6.47;;;1.92;;
54557;SDS011;40452;50.080;20.040;2023-04-15T08:20:32;6.35;;;2.42;;
54557;SDS011;40452;50.080;20.040;2023-04-15T13:10:27;10.85;;;6.95;;
54557;SDS011;40452;50.080;20.040;2023-04-15T13:12:55;7.32;;;3.88;;
54557;SDS011;40452;50.080;20.040;2023-04-15T13:15:26;6.60;;;3.05;;
54557;SDS011;40452;50.080;20.040;2023-04-15T13:21:20;4.72;;;2.67;;
54557;SDS011;40452;50.080;20.040;2023-04-15T13:23:47;2.95;;;2.22;;
54557;SDS011;40452;50.080;20.040;2023-04-15T13:26:16;5.22;;;2.55;;
54557;SDS011;40452;50.080;20.040;2023-04-15T13:28:42;3.10;;;2.40;;
54557;SDS011;40452;50.080;20.040;2023-04-15T13:31:08;4.20;;;2.50;;
54557;SDS011;40452;50.080;20.040;2023-04-15T13:33:33;4.57;;;2.10;;
54557;SDS011;40452;50.080;20.040;2023-04-15T13:35:59;4.07;;;2.60;;
54557;SDS011;40452;50.080;20.040;2023-04-15T13:38:24;6.90;;;2.85;;
54557;SDS011;40452;50.080;20.040;2023-04-15T13:40:50;5.78;;;2.88;;
54557;SDS011;40452;50.080;20.040;2023-04-15T13:43:16;4.03;;;2.60;;
54557;SDS011;40452;50.080;20.040;2023-04-15T13:45:42;4.90;;;3.00;;
54557;SDS011;40452;50.080;20.040;2023-04-15T13:48:08;4.35;;;3.08;;
54557;SDS011;40452;50.080;20.040;2023-04-15T13:50:33;4.85;;;2.60;;
54557;SDS011;40452;50.080;20.040;2023-04-15T13:52:59;4.18;;;2.95;;
54557;SDS011;40452;50.080;20.040;2023-04-15T13:55:25;5.38;;;2.45;;
54557;SDS011;40452;50.080;20.040;2023-04-15T13:57:50;3.80;;;2.40;;
54557;SDS011;40452;50.080;20.040;2023-04-15T14:00:16;7.53;;;2.45;;
54557;SDS011;40452;50.080;20.040;2023-04-15T14:02:42;4.80;;;2.70;;
54557;SDS011;40452;50.080;20.040;2023-04-15T14:05:08;4.93;;;2.50;;
54557;SDS011;40452;50.080;20.040;2023-04-15T14:07:34;3.25;;;2.30;;
54557;SDS011;40452;50.080;20.040;2023-04-15T14:10:00;3.22;;;2.15;;
54557;SDS011;40452;50.080;20.040;2023-04-15T14:12:26;5.85;;;2.20;;
54557;SDS011;40452;50.080;20.040;2023-04-15T14:14:51;4.07;;;2.03;;
54557;SDS011;40452;50.080;20.040;2023-04-15T14:17:17;2.45;;;1.70;;
54557;SDS011;40452;50.080;20.040;2023-04-15T14:19:42;5.93;;;2.10;;
54557;SDS011;40452;50.080;20.040;2023-04-15T14:22:08;5.80;;;2.35;;
54557;SDS011;40452;50.080;20.040;2023-04-15T14:24:33;6.05;;;3.20;;
54557;SDS011;40452;50.080;20.040;2023-04-15T14:26:59;6.70;;;2.65;;
54557;SDS011;40452;50.080;20.040;2023-04-15T14:29:26;5.30;;;2.60;;
54557;SDS011;40452;50.080;20.040;2023-04-15T14:31:51;3.83;;;2.17;;
54557;SDS011;40452;50.080;20.040;2023-04-15T14:34:17;4.72;;;2.35;;
54557;SDS011;40452;50.080;20.040;2023-04-15T14:36:42;7.00;;;2.45;;
54557;SDS011;40452;50.080;20.040;2023-04-15T14:39:08;5.43;;;2.17;;
54557;SDS011;40452;50.080;20.040;2023-04-15T14:41:34;10.70;;;2.50;;
54557;SDS011;40452;50.080;20.040;2023-04-15T14:44:00;6.43;;;2.20;;
54557;SDS011;40452;50.080;20.040;2023-04-15T14:46:25;7.03;;;2.72;;
54557;SDS011;40452;50.080;20.040;2023-04-15T14:48:51;16.38;;;2.38;;
54557;SDS011;40452;50.080;20.040;2023-04-15T14:51:17;9.40;;;2.13;;
54557;SDS011;40452;50.080;20.040;2023-04-15T14:53:42;10.00;;;2.08;;
54557;SDS011;40452;50.080;20.040;2023-04-15T14:56:08;5.97;;;2.28;;
54557;SDS011;40452;50.080;20.040;2023-04-15T14:58:34;6.28;;;2.25;;
54557;SDS011;40452;50.080;20.040;2023-04-15T15:01:00;6.07;;;2.20;;
54557;SDS011;40452;50.080;20.040;2023-04-15T15:03:26;4.32;;;2.25;;
54557;SDS011;40452;50.080;20.040;2023-04-15T15:05:52;3.95;;;2.10;;
54557;SDS011;40452;50.080;20.040;2023-04-15T15:08:18;3.45;;;1.90;;
54557;SDS011;40452;50.080;20.040;2023-04-15T15:10:43;3.25;;;1.90;;
54557;SDS011;40452;50.080;20.040;2023-04-15T15:13:09;5.03;;;2.20;;
54557;SDS011;40452;50.080;20.040;2023-04-15T15:15:36;3.17;;;2.20;;
54557;SDS011;40452;50.080;20.040;2023-04-15T15:18:02;14.10;;;6.18;;
54557;SDS011;40452;50.080;20.040;2023-04-15T15:20:28;31.17;;;17.20;;
54557;SDS011;40452;50.080;20.040;2023-04-15T15:22:56;33.38;;;20.20;;
54557;SDS011;40452;50.080;20.040;2023-04-15T15:25:22;39.05;;;21.08;;
54557;SDS011;40452;50.080;20.040;2023-04-15T15:27:48;37.40;;;22.13;;
54557;SDS011;40452;50.080;20.040;2023-04-15T15:30:13;36.08;;;22.00;;
54557;SDS011;40452;50.080;20.040;2023-04-15T15:32:39;39.20;;;21.35;;
54557;SDS011;40452;50.080;20.040;2023-04-15T15:35:06;34.55;;;20.58;;
54557;SDS011;40452;50.080;20.040;2023-04-15T15:37:34;33.72;;;20.63;;
54557;SDS011;40452;50.080;20.040;2023-04-15T15:40:00;35.03;;;20.52;;
54557;SDS011;40452;50.080;20.040;2023-04-15T15:42:30;31.90;;;19.58;;
54557;SDS011;40452;50.080;20.040;2023-04-15T15:44:55;31.52;;;19.30;;
54557;SDS011;40452;50.080;20.040;2023-04-15T15:47:21;33.60;;;19.45;;
54557;SDS011;40452;50.080;20.040;2023-04-15T15:49:47;33.22;;;19.13;;
54557;SDS011;40452;50.080;20.040;2023-04-15T15:52:12;31.45;;;18.23;;
54557;SDS011;40452;50.080;20.040;2023-04-15T15:54:38;31.70;;;18.30;;
54557;SDS011;40452;50.080;20.040;2023-04-15T15:57:05;29.48;;;17.77;;
54557;SDS011;40452;50.080;20.040;2023-04-15T15:59:30;29.42;;;17.33;;
54557;SDS011;40452;50.080;20.040;2023-04-15T16:01:57;42.33;;;17.08;;
54557;SDS011;40452;50.080;20.040;2023-04-15T16:04:23;32.13;;;17.20;;
54557;SDS011;40452;50.080;20.040;2023-04-15T16:06:48;30.35;;;16.15;;
54557;SDS011;40452;50.080;20.040;2023-04-15T16:09:14;32.55;;;15.48;;
54557;SDS011;40452;50.080;20.040;2023-04-15T16:11:40;24.35;;;15.07;;
54557;SDS011;40452;50.080;20.040;2023-04-15T16:14:05;29.40;;;15.35;;
54557;SDS011;40452;50.080;20.040;2023-04-15T16:16:31;22.58;;;14.25;;
54557;SDS011;40452;50.080;20.040;2023-04-15T16:18:56;26.45;;;14.18;;
54557;SDS011;40452;50.080;20.040;2023-04-15T16:21:22;21.67;;;12.95;;
54557;SDS011;40452;50.080;20.040;2023-04-15T16:23:51;21.30;;;13.95;;
54557;SDS011;40452;50.080;20.040;2023-04-15T16:26:16;24.23;;;13.23;;
54557;SDS011;40452;50.080;20.040;2023-04-15T16:28:42;21.90;;;13.65;;
54557;SDS011;40452;50.080;20.040;2023-04-15T16:31:09;21.38;;;12.95;;
54557;SDS011;40452;50.080;20.040;2023-04-15T16:33:35;19.92;;;11.75;;
54557;SDS011;40452;50.080;20.040;2023-04-15T16:36:02;24.17;;;13.00;;
54557;SDS011;40452;50.080;20.040;2023-04-15T16:38:28;18.35;;;11.93;;
54557;SDS011;40452;50.080;20.040;2023-04-15T16:40:54;21.10;;;11.43;;
54557;SDS011;40452;50.080;20.040;2023-04-15T16:43:24;22.67;;;12.48;;
54557;SDS011;40452;50.080;20.040;2023-04-15T16:45:50;18.83;;;10.88;;
54557;SDS011;40452;50.080;20.040;2023-04-15T16:48:16;18.25;;;12.07;;
54557;SDS011;40452;50.080;20.040;2023-04-15T16:50:42;20.80;;;11.48;;
54557;SDS011;40452;50.080;20.040;2023-04-15T16:53:08;21.50;;;11.63;;
54557;SDS011;40452;50.080;20.040;2023-04-15T16:55:33;17.30;;;10.95;;
54557;SDS011;40452;50.080;20.040;2023-04-15T16:57:59;20.75;;;11.45;;
54557;SDS011;40452;50.080;20.040;2023-04-15T17:00:24;17.17;;;10.68;;
54557;SDS011;40452;50.080;20.040;2023-04-15T17:02:51;19.50;;;11.82;;
54557;SDS011;40452;50.080;20.040;2023-04-15T17:05:17;16.75;;;10.55;;
54557;SDS011;40452;50.080;20.040;2023-04-15T17:07:42;16.48;;;10.40;;
54557;SDS011;40452;50.080;20.040;2023-04-15T17:10:16;18.23;;;10.05;;
54557;SDS011;40452;50.080;20.040;2023-04-15T17:12:41;14.85;;;9.13;;
54557;SDS011;40452;50.080;20.040;2023-04-15T17:15:07;17.63;;;8.57;;
54557;SDS011;40452;50.080;20.040;2023-04-15T17:17:33;19.92;;;9.60;;
54557;SDS011;40452;50.080;20.040;2023-04-15T17:19:58;25.95;;;9.52;;
54557;SDS011;40452;50.080;20.040;2023-04-15T17:22:24;14.35;;;8.65;;
54557;SDS011;40452;50.080;20.040;2023-04-15T17:24:49;18.60;;;8.60;;
54557;SDS011;40452;50.080;20.040;2023-04-15T17:27:15;15.70;;;9.57;;
54557;SDS011;40452;50.080;20.040;2023-04-15T17:29:40;14.55;;;8.80;;
54557;SDS011;40452;50.080;20.040;2023-04-15T17:32:06;17.38;;;8.60;;
54557;SDS011;40452;50.080;20.040;2023-04-15T17:34:31;17.33;;;8.40;;
54557;SDS011;40452;50.080;20.040;2023-04-15T17:36:57;11.98;;;7.93;;
54557;SDS011;40452;50.080;20.040;2023-04-15T17:39:23;14.40;;;8.27;;
54557;SDS011;40452;50.080;20.040;2023-04-15T17:41:48;15.35;;;8.00;;
54557;SDS011;40452;50.080;20.040;2023-04-15T17:44:14;13.55;;;8.13;;
54557;SDS011;40452;50.080;20.040;2023-04-15T17:46:39;11.80;;;7.28;;
54557;SDS011;40452;50.080;20.040;2023-04-15T17:49:07;12.43;;;7.70;;
54557;SDS011;40452;50.080;20.040;2023-04-15T17:51:33;13.07;;;7.93;;
54557;SDS011;40452;50.080;20.040;2023-04-15T17:53:58;15.23;;;7.50;;
54557;SDS011;40452;50.080;20.040;2023-04-15T17:56:24;13.98;;;7.90;;
54557;SDS011;40452;50.080;20.040;2023-04-15T17:58:50;12.93;;;7.72;;
54557;SDS011;40452;50.080;20.040;2023-04-15T18:01:16;13.70;;;7.80;;
54557;SDS011;40452;50.080;20.040;2023-04-15T18:03:42;14.90;;;7.22;;
54557;SDS011;40452;50.080;20.040;2023-04-15T18:06:08;12.38;;;7.53;;
54557;SDS011;40452;50.080;20.040;2023-04-15T18:08:35;10.93;;;7.43;;
54557;SDS011;40452;50.080;20.040;2023-04-15T18:11:00;12.65;;;6.88;;
54557;SDS011;40452;50.080;20.040;2023-04-15T18:13:26;13.35;;;7.00;;
54557;SDS011;40452;50.080;20.040;2023-04-15T18:15:52;11.90;;;6.65;;
54557;SDS011;40452;50.080;20.040;2023-04-15T18:18:18;8.75;;;5.40;;
54557;SDS011;40452;50.080;20.040;2023-04-15T18:20:44;8.43;;;5.18;;
54557;SDS011;40452;50.080;20.040;2023-04-15T18:23:10;9.50;;;5.10;;
54557;SDS011;40452;50.080;20.040;2023-04-15T18:25:35;8.07;;;5.25;;
54557;SDS011;40452;50.080;20.040;2023-04-15T18:28:02;10.73;;;6.43;;
54557;SDS011;40452;50.080;20.040;2023-04-15T18:30:29;11.75;;;5.97;;
54557;SDS011;40452;50.080;20.040;2023-04-15T18:32:54;7.00;;;5.10;;
54557;SDS011;40452;50.080;20.040;2023-04-15T18:35:20;7.40;;;4.68;;
54557;SDS011;40452;50.080;20.040;2023-04-15T18:37:46;7.95;;;5.13;;
54557;SDS011;40452;50.080;20.040;2023-04-15T18:40:12;8.48;;;4.53;;
54557;SDS011;40452;50.080;20.040;2023-04-15T18:42:40;9.25;;;5.00;;
54557;SDS011;40452;50.080;20.040;2023-04-15T18:45:05;8.63;;;4.15;;
54557;SDS011;40452;50.080;20.040;2023-04-15T18:47:31;9.20;;;4.60;;
54557;SDS011;40452;50.080;20.040;2023-04-15T18:49:57;6.03;;;4.28;;
54557;SDS011;40452;50.080;20.040;2023-04-15T18:52:22;7.32;;;4.57;;
54557;SDS011;40452;50.080;20.040;2023-04-15T18:54:48;6.10;;;4.47;;
54557;SDS011;40452;50.080;20.040;2023-04-15T18:57:13;8.32;;;5.30;;
54557;SDS011;40452;50.080;20.040;2023-04-15T18:59:39;8.85;;;5.00;;
54557;SDS011;40452;50.080;20.040;2023-04-15T19:02:05;8.75;;;4.65;;
54557;SDS011;40452;50.080;20.040;2023-04-15T19:04:31;6.60;;;4.60;;
54557;SDS011;40452;50.080;20.040;2023-04-15T19:06:56;9.57;;;4.90;;
54557;SDS011;40452;50.080;20.040;2023-04-15T19:09:25;8.60;;;4.90;;
54557;SDS011;40452;50.080;20.040;2023-04-15T19:11:53;9.20;;;4.78;;
54557;SDS011;40452;50.080;20.040;2023-04-15T19:14:20;10.32;;;4.47;;
54557;SDS011;40452;50.080;20.040;2023-04-15T19:16:46;8.45;;;5.10;;
54557;SDS011;40452;50.080;20.040;2023-04-15T19:19:11;6.68;;;4.80;;
54557;SDS011;40452;50.080;20.040;2023-04-15T19:21:38;7.20;;;5.13;;
54557;SDS011;40452;50.080;20.040;2023-04-15T19:24:04;10.25;;;4.68;;
54557;SDS011;40452;50.080;20.040;2023-04-15T19:26:30;9.18;;;4.85;;
54557;SDS011;40452;50.080;20.040;2023-04-15T19:28:55;9.25;;;4.75;;
54557;SDS011;40452;50.080;20.040;2023-04-15T19:31:22;5.90;;;4.60;;
54557;SDS011;40452;50.080;20.040;2023-04-15T19:33:49;7.80;;;4.60;;
54557;SDS011;40452;50.080;20.040;2023-04-15T19:36:14;10.25;;;4.78;;
54557;SDS011;40452;50.080;20.040;2023-04-15T19:38:42;7.07;;;4.03;;
54557;SDS011;40452;50.080;20.040;2023-04-15T19:41:07;7.97;;;4.43;;
54557;SDS011;40452;50.080;20.040;2023-04-15T19:43:34;7.20;;;4.78;;
54557;SDS011;40452;50.080;20.040;2023-04-15T19:46:00;7.38;;;4.45;;
54557;SDS011;40452;50.080;20.040;2023-04-15T19:48:25;8.63;;;4.57;;
54557;SDS011;40452;50.080;20.040;2023-04-15T19:50:51;8.70;;;4.50;;
54557;SDS011;40452;50.080;20.040;2023-04-15T19:53:16;6.47;;;3.80;;
54557;SDS011;40452;50.080;20.040;2023-04-15T19:55:42;6.13;;;4.22;;
54557;SDS011;40452;50.080;20.040;2023-04-15T19:58:08;7.45;;;4.10;;
54557;SDS011;40452;50.080;20.040;2023-04-15T20:00:33;7.22;;;4.32;;
54557;SDS011;40452;50.080;20.040;2023-04-15T20:03:00;7.40;;;3.85;;
54557;SDS011;40452;50.080;20.040;2023-04-15T20:05:25;7.50;;;3.90;;
54557;SDS011;40452;50.080;20.040;2023-04-15T20:07:51;5.35;;;3.85;;
54557;SDS011;40452;50.080;20.040;2023-04-15T20:10:17;5.25;;;3.88;;
54557;SDS011;40452;50.080;20.040;2023-04-15T20:12:46;6.40;;;3.90;;
54557;SDS011;40452;50.080;20.040;2023-04-15T20:15:17;5.90;;;3.92;;
54557;SDS011;40452;50.080;20.040;2023-04-15T20:17:42;5.55;;;3.80;;
54557;SDS011;40452;50.080;20.040;2023-04-15T20:20:08;8.30;;;5.20;;
54557;SDS011;40452;50.080;20.040;2023-04-15T20:22:33;9.00;;;6.22;;
54557;SDS011;40452;50.080;20.040;2023-04-15T20:25:00;7.47;;;4.95;;
54557;SDS011;40452;50.080;20.040;2023-04-15T20:27:26;8.90;;;5.43;;
54557;SDS011;40452;50.080;20.040;2023-04-15T20:29:51;8.88;;;5.95;;
54557;SDS011;40452;50.080;20.040;2023-04-15T20:32:17;10.20;;;6.13;;
54557;SDS011;40452;50.080;20.040;2023-04-15T20:34:45;10.15;;;6.47;;
54557;SDS011;40452;50.080;20.040;2023-04-15T20:37:11;9.32;;;5.93;;
54557;SDS011;40452;50.080;20.040;2023-04-15T20:39:37;9.35;;;5.90;;
54557;SDS011;40452;50.080;20.040;2023-04-15T20:42:03;8.43;;;5.80;;
54557;SDS011;40452;50.080;20.040;2023-04-15T20:44:33;11.20;;;6.50;;
54557;SDS011;40452;50.080;20.040;2023-04-15T20:47:00;9.23;;;6.70;;
54557;SDS011;40452;50.080;20.040;2023-04-15T20:49:25;9.02;;;6.50;;
54557;SDS011;40452;50.080;20.040;2023-04-15T20:51:51;11.77;;;7.28;;
54557;SDS011;40452;50.080;20.040;2023-04-15T20:54:16;10.25;;;6.90;;
54557;SDS011;40452;50.080;20.040;2023-04-15T20:56:43;13.20;;;7.10;;
54557;SDS011;40452;50.080;20.040;2023-04-15T20:59:08;11.07;;;7.65;;
54557;SDS011;40452;50.080;20.040;2023-04-15T21:01:34;10.63;;;7.40;;
54557;SDS011;40452;50.080;20.040;2023-04-15T21:04:00;11.10;;;7.47;;
54557;SDS011;40452;50.080;20.040;2023-04-15T21:06:25;11.90;;;6.68;;
54557;SDS011;40452;50.080;20.040;2023-04-15T21:08:51;13.52;;;7.10;;
54557;SDS011;40452;50.080;20.040;2023-04-15T21:11:17;9.43;;;6.95;;
54557;SDS011;40452;50.080;20.040;2023-04-15T21:13:43;11.95;;;7.63;;
54557;SDS011;40452;50.080;20.040;2023-04-15T21:16:10;13.18;;;7.07;;
54557;SDS011;40452;50.080;20.040;2023-04-15T21:18:35;10.88;;;7.15;;
54557;SDS011;40452;50.080;20.040;2023-04-15T21:21:01;10.43;;;6.60;;
54557;SDS011;40452;50.080;20.040;2023-04-15T21:23:27;11.70;;;6.78;;
54557;SDS011;40452;50.080;20.040;2023-04-15T21:25:53;10.82;;;7.45;;
54557;SDS011;40452;50.080;20.040;2023-04-15T21:28:19;13.20;;;7.28;;
54557;SDS011;40452;50.080;20.040;2023-04-15T21:30:45;22.38;;;7.38;;
54557;SDS011;40452;50.080;20.040;2023-04-15T21:33:11;11.80;;;7.18;;
54557;SDS011;40452;50.080;20.040;2023-04-15T21:35:37;11.43;;;7.40;;
54557;SDS011;40452;50.080;20.040;2023-04-15T21:38:03;9.70;;;6.72;;
54557;SDS011;40452;50.080;20.040;2023-04-15T21:40:28;11.25;;;6.78;;
54557;SDS011;40452;50.080;20.040;2023-04-15T21:42:54;11.40;;;6.93;;
54557;SDS011;40452;50.080;20.040;2023-04-15T21:45:19;12.70;;;7.82;;
54557;SDS011;40452;50.080;20.040;2023-04-15T21:47:45;11.88;;;7.30;;
54557;SDS011;40452;50.080;20.040;2023-04-15T21:50:11;10.55;;;7.05;;
54557;SDS011;40452;50.080;20.040;2023-04-15T21:52:37;12.25;;;7.40;;
54557;SDS011;40452;50.080;20.040;2023-04-15T21:55:03;11.52;;;6.90;;
54557;SDS011;40452;50.080;20.040;2023-04-15T21:57:30;10.45;;;7.10;;
54557;SDS011;40452;50.080;20.040;2023-04-15T21:59:58;10.85;;;7.15;;
54557;SDS011;40452;50.080;20.040;2023-04-15T22:02:24;9.90;;;6.55;;
54557;SDS011;40452;50.080;20.040;2023-04-15T22:04:49;10.30;;;7.00;;
54557;SDS011;40452;50.080;20.040;2023-04-15T22:07:15;11.82;;;6.70;;
54557;SDS011;40452;50.080;20.040;2023-04-15T22:09:40;11.00;;;6.88;;
54557;SDS011;40452;50.080;20.040;2023-04-15T22:12:06;10.45;;;7.07;;
54557;SDS011;40452;50.080;20.040;2023-04-15T22:14:31;11.30;;;6.95;;
54557;SDS011;40452;50.080;20.040;2023-04-15T22:16:56;10.20;;;6.78;;
54557;SDS011;40452;50.080;20.040;2023-04-15T22:19:22;9.85;;;6.47;;
54557;SDS011;40452;50.080;20.040;2023-04-15T22:21:48;11.98;;;7.00;;
54557;SDS011;40452;50.080;20.040;2023-04-15T22:24:14;9.10;;;6.72;;
54557;SDS011;40452;50.080;20.040;2023-04-15T22:26:40;10.75;;;6.80;;
54557;SDS011;40452;50.080;20.040;2023-04-15T22:29:05;11.05;;;7.35;;
54557;SDS011;40452;50.080;20.040;2023-04-15T22:31:31;12.00;;;7.38;;
54557;SDS011;40452;50.080;20.040;2023-04-15T22:33:56;9.55;;;6.45;;
54557;SDS011;40452;50.080;20.040;2023-04-15T22:36:22;9.88;;;6.47;;
54557;SDS011;40452;50.080;20.040;2023-04-15T22:38:49;11.10;;;7.13;;
54557;SDS011;40452;50.080;20.040;2023-04-15T22:41:14;10.48;;;6.72;;
54557;SDS011;40452;50.080;20.040;2023-04-15T22:43:40;10.30;;;6.82;;
54557;SDS011;40452;50.080;20.040;2023-04-15T22:46:05;10.23;;;6.78;;
54557;SDS011;40452;50.080;20.040;2023-04-15T22:48:31;9.63;;;6.70;;
54557;SDS011;40452;50.080;20.040;2023-04-15T22:50:56;10.43;;;6.82;;
54557;SDS011;40452;50.080;20.040;2023-04-15T22:53:22;9.93;;;6.30;;
54557;SDS011;40452;50.080;20.040;2023-04-15T22:55:47;9.80;;;6.75;;
54557;SDS011;40452;50.080;20.040;2023-04-15T22:58:13;9.02;;;5.93;;
